sensor_id;sensor_type;location;lat;lon;timestamp;pressure;altitude;pressure_sealevel;temperature;humidity
40285;BME280;25997;50.214;19.354;2023-09-19T00:01:55;97179.31;;;19.92;47.71
40285;BME280;25997;50.214;19.354;2023-09-19T00:04:57;97176.59;;;19.95;47.81
40285;BME280;25997;50.214;19.354;2023-09-19T00:08:00;97172.03;;;19.98;47.69
40285;BME280;25997;50.214;19.354;2023-09-19T00:11:05;97163.97;;;20.01;47.72
40285;BME280;25997;50.214;19.354;2023-09-19T00:14:10;97165.81;;;19.99;47.74
40285;BME280;25997;50.214;19.354;2023-09-19T00:17:15;97165.63;;;20.07;47.67
40285;BME280;25997;50.214;19.354;2023-09-19T00:20:17;97162.00;;;20.10;47.66
40285;BME280;25997;50.214;19.354;2023-09-19T00:23:20;97161.09;;;20.11;47.49
40285;BME280;25997;50.214;19.354;2023-09-19T00:26:23;97159.28;;;20.13;47.66
40285;BME280;25997;50.214;19.354;2023-09-19T00:29:27;97159.34;;;20.10;47.73
40285;BME280;25997;50.214;19.354;2023-09-19T00:32:33;97154.00;;;20.11;47.51
40285;BME280;25997;50.214;19.354;2023-09-19T00:35:38;97145.94;;;20.13;47.67
40285;BME280;25997;50.214;19.354;2023-09-19T00:38:40;97136.94;;;20.17;47.47
40285;BME280;25997;50.214;19.354;2023-09-19T00:41:45;97138.84;;;20.13;47.49
40285;BME280;25997;50.214;19.354;2023-09-19T00:44:49;97139.78;;;20.09;47.72
40285;BME280;25997;50.214;19.354;2023-09-19T00:47:52;97128.41;;;20.04;47.83
40285;BME280;25997;50.214;19.354;2023-09-19T00:50:57;97126.56;;;20.06;48.10
40285;BME280;25997;50.214;19.354;2023-09-19T00:54:02;97125.78;;;20.01;48.01
40285;BME280;25997;50.214;19.354;2023-09-19T00:57:05;97126.78;;;19.97;48.12
40285;BME280;25997;50.214;19.354;2023-09-19T01:00:12;97134.66;;;20.01;48.24
40285;BME280;25997;50.214;19.354;2023-09-19T01:03:17;97119.56;;;20.00;48.07
40285;BME280;25997;50.214;19.354;2023-09-19T01:06:19;97116.16;;;19.95;48.31
40285;BME280;25997;50.214;19.354;2023-09-19T01:09:23;97117.13;;;19.93;48.33
40285;BME280;25997;50.214;19.354;2023-09-19T01:12:33;97120.63;;;19.93;48.44
40285;BME280;25997;50.214;19.354;2023-09-19T01:15:50;97119.69;;;19.96;48.43
40285;BME280;25997;50.214;19.354;2023-09-19T01:19:01;97104.50;;;19.99;48.56
40285;BME280;25997;50.214;19.354;2023-09-19T01:22:16;97109.84;;;19.99;48.20
40285;BME280;25997;50.214;19.354;2023-09-19T01:29:13;97096.41;;;20.04;48.72
40285;BME280;25997;50.214;19.354;2023-09-19T01:32:23;97098.25;;;20.00;48.79
40285;BME280;25997;50.214;19.354;2023-09-19T01:35:26;97098.25;;;20.00;48.83
40285;BME280;25997;50.214;19.354;2023-09-19T01:38:29;97098.19;;;20.03;48.95
40285;BME280;25997;50.214;19.354;2023-09-19T01:41:41;97091.09;;;20.04;48.98
40285;BME280;25997;50.214;19.354;2023-09-19T01:44:54;97095.47;;;20.07;48.95
40285;BME280;25997;50.214;19.354;2023-09-19T01:48:05;97082.22;;;20.03;49.12
40285;BME280;25997;50.214;19.354;2023-09-19T01:51:11;97089.34;;;20.01;48.85
40285;BME280;25997;50.214;19.354;2023-09-19T01:54:19;97086.69;;;20.01;48.85
40285;BME280;25997;50.214;19.354;2023-09-19T01:57:29;97091.13;;;20.01;49.02
40285;BME280;25997;50.214;19.354;2023-09-19T02:00:37;97080.50;;;19.99;49.19
40285;BME280;25997;50.214;19.354;2023-09-19T02:03:41;97085.91;;;19.96;49.35
40285;BME280;25997;50.214;19.354;2023-09-19T02:06:45;97090.53;;;19.90;49.51
40285;BME280;25997;50.214;19.354;2023-09-19T02:09:48;97087.94;;;19.87;49.85
40285;BME280;25997;50.214;19.354;2023-09-19T02:12:50;97088.94;;;19.83;50.23
40285;BME280;25997;50.214;19.354;2023-09-19T02:15:53;97085.31;;;19.85;50.35
40285;BME280;25997;50.214;19.354;2023-09-19T02:18:58;97080.00;;;19.85;50.50
40285;BME280;25997;50.214;19.354;2023-09-19T02:22:01;97084.25;;;19.92;50.64
40285;BME280;25997;50.214;19.354;2023-09-19T02:25:05;97081.66;;;19.89;50.91
40285;BME280;25997;50.214;19.354;2023-09-19T02:28:08;97080.81;;;19.87;51.11
40285;BME280;25997;50.214;19.354;2023-09-19T02:31:10;97080.88;;;19.86;51.50
40285;BME280;25997;50.214;19.354;2023-09-19T02:34:15;97079.09;;;19.86;51.41
40285;BME280;25997;50.214;19.354;2023-09-19T02:37:18;97067.66;;;19.81;51.75
40285;BME280;25997;50.214;19.354;2023-09-19T02:40:20;97079.34;;;19.77;52.00
40285;BME280;25997;50.214;19.354;2023-09-19T02:43:26;97077.03;;;19.62;52.76
40285;BME280;25997;50.214;19.354;2023-09-19T02:46:29;97071.19;;;19.48;53.43
40285;BME280;25997;50.214;19.354;2023-09-19T02:49:33;97063.28;;;19.45;53.59
40285;BME280;25997;50.214;19.354;2023-09-19T02:52:35;97060.84;;;19.34;54.29
40285;BME280;25997;50.214;19.354;2023-09-19T02:55:38;97058.19;;;19.36;54.44
40285;BME280;25997;50.214;19.354;2023-09-19T02:58:41;97052.88;;;19.34;54.52
40285;BME280;25997;50.214;19.354;2023-09-19T03:01:43;97058.19;;;19.36;54.77
40285;BME280;25997;50.214;19.354;2023-09-19T03:04:50;97049.31;;;19.34;54.98
40285;BME280;25997;50.214;19.354;2023-09-19T03:07:53;97047.81;;;19.24;55.46
40285;BME280;25997;50.214;19.354;2023-09-19T03:10:56;97041.06;;;19.09;55.80
40285;BME280;25997;50.214;19.354;2023-09-19T03:13:59;97049.25;;;19.02;56.13
40285;BME280;25997;50.214;19.354;2023-09-19T03:17:01;97042.34;;;18.93;56.45
40285;BME280;25997;50.214;19.354;2023-09-19T03:20:08;97047.06;;;18.81;57.54
40285;BME280;25997;50.214;19.354;2023-09-19T03:23:13;97048.97;;;18.74;57.15
40285;BME280;25997;50.214;19.354;2023-09-19T03:26:15;97047.34;;;18.67;58.14
40285;BME280;25997;50.214;19.354;2023-09-19T03:29:20;97062.78;;;18.50;59.92
40285;BME280;25997;50.214;19.354;2023-09-19T03:32:23;97055.03;;;18.38;59.60
40285;BME280;25997;50.214;19.354;2023-09-19T03:35:27;97055.25;;;18.29;60.02
40285;BME280;25997;50.214;19.354;2023-09-19T03:38:29;97058.25;;;18.12;61.10
40285;BME280;25997;50.214;19.354;2023-09-19T03:41:32;97060.19;;;18.04;61.21
40285;BME280;25997;50.214;19.354;2023-09-19T03:44:38;97060.56;;;17.81;62.88
40285;BME280;25997;50.214;19.354;2023-09-19T03:47:41;97055.66;;;17.59;64.95
40285;BME280;25997;50.214;19.354;2023-09-19T03:50:47;97059.28;;;17.55;64.44
40285;BME280;25997;50.214;19.354;2023-09-19T03:53:50;97064.63;;;17.52;64.72
40285;BME280;25997;50.214;19.354;2023-09-19T03:56:52;97052.28;;;17.49;64.96
40285;BME280;25997;50.214;19.354;2023-09-19T03:59:55;97051.44;;;17.49;65.21
40285;BME280;25997;50.214;19.354;2023-09-19T04:02:57;97044.34;;;17.49;65.41
40285;BME280;25997;50.214;19.354;2023-09-19T04:06:03;97049.56;;;17.54;65.63
40285;BME280;25997;50.214;19.354;2023-09-19T04:09:07;97045.94;;;17.58;65.73
40285;BME280;25997;50.214;19.354;2023-09-19T04:12:10;97044.94;;;17.65;65.90
40285;BME280;25997;50.214;19.354;2023-09-19T04:15:12;97050.13;;;17.72;65.41
40285;BME280;25997;50.214;19.354;2023-09-19T04:18:15;97051.69;;;17.84;65.66
40285;BME280;25997;50.214;19.354;2023-09-19T04:21:19;97048.81;;;17.96;65.22
40285;BME280;25997;50.214;19.354;2023-09-19T04:24:22;97045.03;;;18.08;65.43
40285;BME280;25997;50.214;19.354;2023-09-19T04:27:24;97045.84;;;18.13;65.41
40285;BME280;25997;50.214;19.354;2023-09-19T04:30:26;97039.69;;;18.11;65.70
40285;BME280;25997;50.214;19.354;2023-09-19T04:33:29;97038.84;;;18.07;66.03
40285;BME280;25997;50.214;19.354;2023-09-19T04:36:33;97041.53;;;18.06;65.94
40285;BME280;25997;50.214;19.354;2023-09-19T04:39:37;97045.94;;;18.08;66.34
40285;BME280;25997;50.214;19.354;2023-09-19T04:42:40;97042.25;;;18.14;66.24
40285;BME280;25997;50.214;19.354;2023-09-19T04:45:42;97043.03;;;18.19;66.07
40285;BME280;25997;50.214;19.354;2023-09-19T04:48:45;97043.00;;;18.22;66.35
40285;BME280;25997;50.214;19.354;2023-09-19T04:51:49;97038.53;;;18.22;66.35
40285;BME280;25997;50.214;19.354;2023-09-19T04:54:51;97048.41;;;18.17;66.79
40285;BME280;25997;50.214;19.354;2023-09-19T04:57:54;97044.06;;;18.12;67.22
40285;BME280;25997;50.214;19.354;2023-09-19T05:00:56;97044.19;;;18.06;68.05
40285;BME280;25997;50.214;19.354;2023-09-19T05:03:59;97038.94;;;18.04;67.88
40285;BME280;25997;50.214;19.354;2023-09-19T05:07:03;97033.84;;;17.90;69.57
40285;BME280;25997;50.214;19.354;2023-09-19T05:10:06;97032.91;;;17.95;68.85
40285;BME280;25997;50.214;19.354;2023-09-19T05:13:09;97042.66;;;17.94;69.08
40285;BME280;25997;50.214;19.354;2023-09-19T05:16:13;97037.38;;;17.91;69.18
40285;BME280;25997;50.214;19.354;2023-09-19T05:19:15;97042.78;;;17.86;69.76
40285;BME280;25997;50.214;19.354;2023-09-19T05:22:19;97047.09;;;17.92;69.64
40285;BME280;25997;50.214;19.354;2023-09-19T05:25:21;97044.47;;;17.90;69.52
40285;BME280;25997;50.214;19.354;2023-09-19T05:28:24;97042.84;;;17.83;70.39
40285;BME280;25997;50.214;19.354;2023-09-19T05:31:26;97047.34;;;17.78;71.02
40285;BME280;25997;50.214;19.354;2023-09-19T05:34:29;97053.53;;;17.79;71.01
40285;BME280;25997;50.214;19.354;2023-09-19T05:37:32;97053.41;;;17.85;70.56
40285;BME280;25997;50.214;19.354;2023-09-19T05:40:35;97056.91;;;17.87;70.41
40285;BME280;25997;50.214;19.354;2023-09-19T05:43:39;97062.34;;;17.81;70.94
40285;BME280;25997;50.214;19.354;2023-09-19T05:46:41;97066.00;;;17.74;71.37
40285;BME280;25997;50.214;19.354;2023-09-19T05:49:44;97069.75;;;17.64;71.93
40285;BME280;25997;50.214;19.354;2023-09-19T05:52:53;97069.88;;;17.56;73.33
40285;BME280;25997;50.214;19.354;2023-09-19T05:55:56;97070.03;;;17.47;73.41
40285;BME280;25997;50.214;19.354;2023-09-19T05:59:02;97071.75;;;17.50;73.40
40285;BME280;25997;50.214;19.354;2023-09-19T06:02:05;97075.34;;;17.47;73.98
40285;BME280;25997;50.214;19.354;2023-09-19T06:05:08;97069.94;;;17.52;73.66
40285;BME280;25997;50.214;19.354;2023-09-19T06:08:13;97082.19;;;17.60;73.00
40285;BME280;25997;50.214;19.354;2023-09-19T06:11:15;97078.13;;;17.38;74.88
40285;BME280;25997;50.214;19.354;2023-09-19T06:14:21;97079.66;;;17.54;73.65
40285;BME280;25997;50.214;19.354;2023-09-19T06:17:25;97080.56;;;17.52;74.15
40285;BME280;25997;50.214;19.354;2023-09-19T06:20:29;97085.69;;;17.64;73.61
40285;BME280;25997;50.214;19.354;2023-09-19T06:23:35;97091.88;;;17.63;73.97
40285;BME280;25997;50.214;19.354;2023-09-19T06:26:37;97087.41;;;17.66;73.70
40285;BME280;25997;50.214;19.354;2023-09-19T06:29:40;97086.66;;;17.60;74.58
40285;BME280;25997;50.214;19.354;2023-09-19T06:32:43;97089.09;;;17.69;73.62
40285;BME280;25997;50.214;19.354;2023-09-19T06:35:46;97091.75;;;17.70;73.30
40285;BME280;25997;50.214;19.354;2023-09-19T06:38:50;97104.19;;;17.67;73.74
40285;BME280;25997;50.214;19.354;2023-09-19T06:41:53;97098.03;;;17.65;74.12
40285;BME280;25997;50.214;19.354;2023-09-19T06:44:56;97113.94;;;17.68;73.72
40285;BME280;25997;50.214;19.354;2023-09-19T06:47:58;97113.88;;;17.69;73.36
40285;BME280;25997;50.214;19.354;2023-09-19T06:51:03;97112.00;;;17.77;72.61
40285;BME280;25997;50.214;19.354;2023-09-19T06:54:08;97120.13;;;17.68;73.30
40285;BME280;25997;50.214;19.354;2023-09-19T06:57:10;97137.00;;;17.64;73.15
40285;BME280;25997;50.214;19.354;2023-09-19T07:00:13;97129.97;;;17.62;73.08
40285;BME280;25997;50.214;19.354;2023-09-19T07:03:19;97150.06;;;17.76;72.23
40285;BME280;25997;50.214;19.354;2023-09-19T07:06:22;97148.34;;;17.75;71.92
40285;BME280;25997;50.214;19.354;2023-09-19T07:09:26;97150.22;;;17.67;72.18
40285;BME280;25997;50.214;19.354;2023-09-19T07:12:29;97167.22;;;17.57;72.62
40285;BME280;25997;50.214;19.354;2023-09-19T07:15:33;97174.84;;;17.16;74.06
40285;BME280;25997;50.214;19.354;2023-09-19T07:18:37;97173.38;;;16.97;74.72
40285;BME280;25997;50.214;19.354;2023-09-19T07:21:40;97190.97;;;17.04;74.58
40285;BME280;25997;50.214;19.354;2023-09-19T07:24:44;97194.56;;;16.98;74.34
40285;BME280;25997;50.214;19.354;2023-09-19T07:27:47;97203.25;;;17.09;73.53
40285;BME280;25997;50.214;19.354;2023-09-19T07:30:50;97220.91;;;17.12;73.76
40285;BME280;25997;50.214;19.354;2023-09-19T07:33:53;97228.91;;;17.10;73.75
40285;BME280;25997;50.214;19.354;2023-09-19T07:36:56;97244.81;;;17.09;73.78
40285;BME280;25997;50.214;19.354;2023-09-19T07:39:59;97251.00;;;17.11;73.98
40285;BME280;25997;50.214;19.354;2023-09-19T07:43:03;97247.44;;;17.12;74.31
40285;BME280;25997;50.214;19.354;2023-09-19T07:46:06;97259.03;;;17.06;74.78
40285;BME280;25997;50.214;19.354;2023-09-19T07:49:09;97266.91;;;17.09;74.95
40285;BME280;25997;50.214;19.354;2023-09-19T07:52:12;97271.31;;;17.12;74.71
40285;BME280;25997;50.214;19.354;2023-09-19T07:55:16;97270.38;;;17.17;75.01
40285;BME280;25997;50.214;19.354;2023-09-19T07:58:20;97277.44;;;17.20;74.80
40285;BME280;25997;50.214;19.354;2023-09-19T08:01:23;97280.84;;;17.30;74.64
40285;BME280;25997;50.214;19.354;2023-09-19T08:04:28;97281.66;;;17.38;74.34
40285;BME280;25997;50.214;19.354;2023-09-19T08:07:31;97286.16;;;17.30;75.05
40285;BME280;25997;50.214;19.354;2023-09-19T08:10:35;97298.50;;;17.32;75.41
40285;BME280;25997;50.214;19.354;2023-09-19T08:13:41;97291.41;;;17.34;75.34
40285;BME280;25997;50.214;19.354;2023-09-19T08:16:46;97296.69;;;17.37;75.57
40285;BME280;25997;50.214;19.354;2023-09-19T08:19:48;97297.63;;;17.33;76.03
40285;BME280;25997;50.214;19.354;2023-09-19T08:22:53;97298.47;;;17.37;75.97
40285;BME280;25997;50.214;19.354;2023-09-19T08:25:57;97314.34;;;17.40;75.65
40285;BME280;25997;50.214;19.354;2023-09-19T08:29:02;97317.06;;;17.35;76.18
40285;BME280;25997;50.214;19.354;2023-09-19T08:32:09;97318.03;;;17.28;75.89
40285;BME280;25997;50.214;19.354;2023-09-19T08:35:11;97318.84;;;17.35;75.59
40285;BME280;25997;50.214;19.354;2023-09-19T08:38:14;97327.56;;;17.43;75.17
40285;BME280;25997;50.214;19.354;2023-09-19T08:41:18;97328.44;;;17.43;75.04
40285;BME280;25997;50.214;19.354;2023-09-19T08:44:20;97331.09;;;17.46;74.88
40285;BME280;25997;50.214;19.354;2023-09-19T08:47:31;97332.88;;;17.43;74.86
40285;BME280;25997;50.214;19.354;2023-09-19T08:50:42;97332.09;;;17.38;75.34
40285;BME280;25997;50.214;19.354;2023-09-19T08:53:51;97331.19;;;17.37;75.45
40285;BME280;25997;50.214;19.354;2023-09-19T08:56:56;97329.31;;;17.45;74.74
40285;BME280;25997;50.214;19.354;2023-09-19T09:00:04;97336.41;;;17.43;74.63
40285;BME280;25997;50.214;19.354;2023-09-19T09:03:12;97332.00;;;17.44;74.59
40285;BME280;25997;50.214;19.354;2023-09-19T09:06:16;97331.97;;;17.45;74.50
40285;BME280;25997;50.214;19.354;2023-09-19T09:09:21;97339.16;;;17.36;75.18
40285;BME280;25997;50.214;19.354;2023-09-19T09:12:25;97339.97;;;17.41;74.63
40285;BME280;25997;50.214;19.354;2023-09-19T09:15:29;97334.78;;;17.32;74.87
40285;BME280;25997;50.214;19.354;2023-09-19T09:18:33;97341.88;;;17.31;74.79
40285;BME280;25997;50.214;19.354;2023-09-19T09:21:36;97348.94;;;17.32;75.16
40285;BME280;25997;50.214;19.354;2023-09-19T09:24:51;97353.41;;;17.30;75.21
40285;BME280;25997;50.214;19.354;2023-09-19T09:28:02;97348.16;;;17.23;75.66
40285;BME280;25997;50.214;19.354;2023-09-19T09:31:04;97361.38;;;17.27;75.13
40285;BME280;25997;50.214;19.354;2023-09-19T09:34:10;97360.59;;;17.16;75.98
40285;BME280;25997;50.214;19.354;2023-09-19T09:37:14;97360.56;;;17.20;75.88
40285;BME280;25997;50.214;19.354;2023-09-19T09:40:18;97358.91;;;17.10;76.29
40285;BME280;25997;50.214;19.354;2023-09-19T09:43:39;97362.38;;;17.14;76.33
40285;BME280;25997;50.214;19.354;2023-09-19T09:46:43;97365.94;;;17.13;76.75
40285;BME280;25997;50.214;19.354;2023-09-19T09:50:28;97369.47;;;17.15;77.14
40285;BME280;25997;50.214;19.354;2023-09-19T09:53:37;97359.41;;;17.46;76.19
40285;BME280;25997;50.214;19.354;2023-09-19T09:56:53;97357.50;;;17.54;76.23
40285;BME280;25997;50.214;19.354;2023-09-19T10:00:01;97368.81;;;17.71;75.87
40285;BME280;25997;50.214;19.354;2023-09-19T10:03:19;97365.38;;;17.63;76.46
40285;BME280;25997;50.214;19.354;2023-09-19T10:06:23;97370.47;;;17.78;76.07
40285;BME280;25997;50.214;19.354;2023-09-19T10:09:29;97373.91;;;17.86;75.54
40285;BME280;25997;50.214;19.354;2023-09-19T10:12:42;97368.50;;;17.93;75.44
40285;BME280;25997;50.214;19.354;2023-09-19T10:15:49;97378.34;;;17.85;75.03
40285;BME280;25997;50.214;19.354;2023-09-19T10:18:55;97380.41;;;17.64;75.68
40285;BME280;25997;50.214;19.354;2023-09-19T10:22:01;97385.66;;;17.67;75.83
40285;BME280;25997;50.214;19.354;2023-09-19T10:25:05;97385.03;;;17.48;76.47
40285;BME280;25997;50.214;19.354;2023-09-19T10:28:11;97387.63;;;17.51;76.49
40285;BME280;25997;50.214;19.354;2023-09-19T10:31:18;97387.50;;;17.63;75.65
40285;BME280;25997;50.214;19.354;2023-09-19T10:34:22;97394.69;;;17.55;75.70
40285;BME280;25997;50.214;19.354;2023-09-19T10:37:26;97391.06;;;17.61;75.58
40285;BME280;25997;50.214;19.354;2023-09-19T10:40:29;97389.34;;;17.57;75.64
40285;BME280;25997;50.214;19.354;2023-09-19T10:43:37;97400.75;;;17.65;75.40
40285;BME280;25997;50.214;19.354;2023-09-19T10:46:42;97393.81;;;17.55;75.38
40285;BME280;25997;50.214;19.354;2023-09-19T10:49:46;97404.50;;;17.49;76.15
40285;BME280;25997;50.214;19.354;2023-09-19T10:52:50;97412.53;;;17.41;76.42
40285;BME280;25997;50.214;19.354;2023-09-19T10:55:59;97410.75;;;17.40;76.52
40285;BME280;25997;50.214;19.354;2023-09-19T10:59:07;97413.38;;;17.46;76.32
40285;BME280;25997;50.214;19.354;2023-09-19T11:02:18;97412.44;;;17.50;76.11
40285;BME280;25997;50.214;19.354;2023-09-19T11:05:20;97423.88;;;17.57;75.67
40285;BME280;25997;50.214;19.354;2023-09-19T11:08:24;97422.94;;;17.59;75.55
40285;BME280;25997;50.214;19.354;2023-09-19T11:11:43;97429.19;;;17.55;75.77
40285;BME280;25997;50.214;19.354;2023-09-19T11:14:47;97429.31;;;17.43;76.17
40285;BME280;25997;50.214;19.354;2023-09-19T11:17:51;97419.66;;;17.39;76.50
40285;BME280;25997;50.214;19.354;2023-09-19T11:24:39;97420.44;;;17.47;76.35
40285;BME280;25997;50.214;19.354;2023-09-19T11:28:28;97426.59;;;17.49;76.76
40285;BME280;25997;50.214;19.354;2023-09-19T11:31:42;97423.97;;;17.48;77.01
40285;BME280;25997;50.214;19.354;2023-09-19T11:34:50;97427.44;;;17.51;76.72
40285;BME280;25997;50.214;19.354;2023-09-19T11:38:01;97429.25;;;17.51;76.73
40285;BME280;25997;50.214;19.354;2023-09-19T11:41:37;97433.63;;;17.55;77.27
40285;BME280;25997;50.214;19.354;2023-09-19T11:44:39;97430.84;;;17.62;76.66
40285;BME280;25997;50.214;19.354;2023-09-19T11:47:42;97434.50;;;17.55;77.16
40285;BME280;25997;50.214;19.354;2023-09-19T11:50:49;97434.53;;;17.52;77.26
40285;BME280;25997;50.214;19.354;2023-09-19T11:53:52;97435.25;;;17.65;76.76
40285;BME280;25997;50.214;19.354;2023-09-19T11:56:55;97437.91;;;17.66;76.52
40285;BME280;25997;50.214;19.354;2023-09-19T11:59:57;97453.00;;;17.61;76.10
40285;BME280;25997;50.214;19.354;2023-09-19T12:03:06;97446.84;;;17.58;76.10
40285;BME280;25997;50.214;19.354;2023-09-19T12:06:12;97454.81;;;17.59;75.85
40285;BME280;25997;50.214;19.354;2023-09-19T12:09:15;97445.72;;;17.78;75.14
40285;BME280;25997;50.214;19.354;2023-09-19T12:12:19;97450.19;;;17.76;74.43
40285;BME280;25997;50.214;19.354;2023-09-19T12:15:25;97448.47;;;17.72;74.54
40285;BME280;25997;50.214;19.354;2023-09-19T12:18:30;97453.75;;;17.74;74.57
40285;BME280;25997;50.214;19.354;2023-09-19T12:21:34;97451.09;;;17.75;74.90
40285;BME280;25997;50.214;19.354;2023-09-19T12:24:37;97455.50;;;17.75;74.98
40285;BME280;25997;50.214;19.354;2023-09-19T12:27:46;97458.16;;;17.73;75.54
40285;BME280;25997;50.214;19.354;2023-09-19T12:30:50;97464.19;;;17.89;75.40
40285;BME280;25997;50.214;19.354;2023-09-19T12:33:56;97455.28;;;17.96;75.33
40285;BME280;25997;50.214;19.354;2023-09-19T12:37:09;97460.41;;;18.10;75.10
40285;BME280;25997;50.214;19.354;2023-09-19T12:40:16;97466.53;;;18.18;74.81
40285;BME280;25997;50.214;19.354;2023-09-19T12:43:19;97465.50;;;18.28;74.61
40285;BME280;25997;50.214;19.354;2023-09-19T12:46:22;97473.50;;;18.26;74.28
40285;BME280;25997;50.214;19.354;2023-09-19T12:49:26;97470.84;;;18.25;74.23
40285;BME280;25997;50.214;19.354;2023-09-19T12:52:36;97469.78;;;18.36;73.68
40285;BME280;25997;50.214;19.354;2023-09-19T12:55:38;97474.28;;;18.33;73.34
40285;BME280;25997;50.214;19.354;2023-09-19T12:58:50;97476.91;;;18.34;73.44
40285;BME280;25997;50.214;19.354;2023-09-19T13:02:03;97477.03;;;18.25;73.02
40285;BME280;25997;50.214;19.354;2023-09-19T13:05:08;97468.91;;;18.37;73.58
40285;BME280;25997;50.214;19.354;2023-09-19T13:08:23;97470.53;;;18.46;73.30
40285;BME280;25997;50.214;19.354;2023-09-19T13:11:36;97475.00;;;18.42;72.81
40285;BME280;25997;50.214;19.354;2023-09-19T13:14:41;97470.41;;;18.55;73.38
40285;BME280;25997;50.214;19.354;2023-09-19T13:17:48;97466.78;;;18.62;72.62
40285;BME280;25997;50.214;19.354;2023-09-19T13:21:05;97470.09;;;18.78;71.60
40285;BME280;25997;50.214;19.354;2023-09-19T13:24:23;97470.03;;;18.81;72.07
40285;BME280;25997;50.214;19.354;2023-09-19T13:27:26;97470.84;;;18.86;72.62
40285;BME280;25997;50.214;19.354;2023-09-19T13:30:29;97470.06;;;18.79;72.87
40285;BME280;25997;50.214;19.354;2023-09-19T13:33:33;97470.56;;;19.02;72.74
40285;BME280;25997;50.214;19.354;2023-09-19T13:36:36;97475.41;;;19.31;71.62
40285;BME280;25997;50.214;19.354;2023-09-19T13:39:40;97477.91;;;19.42;71.34
40285;BME280;25997;50.214;19.354;2023-09-19T13:42:48;97469.72;;;19.52;71.03
40285;BME280;25997;50.214;19.354;2023-09-19T13:45:54;97468.53;;;19.68;71.16
40285;BME280;25997;50.214;19.354;2023-09-19T13:48:58;97466.47;;;19.81;70.67
40285;BME280;25997;50.214;19.354;2023-09-19T13:52:01;97467.97;;;19.95;70.34
40285;BME280;25997;50.214;19.354;2023-09-19T13:55:06;97475.00;;;19.98;68.92
40285;BME280;25997;50.214;19.354;2023-09-19T13:58:09;97476.38;;;20.19;69.48
40285;BME280;25997;50.214;19.354;2023-09-19T14:01:12;97485.63;;;20.42;68.65
40285;BME280;25997;50.214;19.354;2023-09-19T14:04:15;97473.09;;;20.86;68.67
40285;BME280;25997;50.214;19.354;2023-09-19T14:07:17;97480.81;;;21.34;65.70
40285;BME280;25997;50.214;19.354;2023-09-19T14:10:22;97473.94;;;21.90;64.91
40285;BME280;25997;50.214;19.354;2023-09-19T14:13:24;97487.06;;;22.30;61.33
40285;BME280;25997;50.214;19.354;2023-09-19T14:16:27;97479.59;;;22.41;62.60
40285;BME280;25997;50.214;19.354;2023-09-19T14:19:31;97487.25;;;22.24;61.78
40285;BME280;25997;50.214;19.354;2023-09-19T14:22:34;97476.88;;;21.81;61.46
40285;BME280;25997;50.214;19.354;2023-09-19T14:25:38;97481.78;;;21.30;61.83
40285;BME280;25997;50.214;19.354;2023-09-19T14:28:42;97480.44;;;20.77;62.95
40285;BME280;25997;50.214;19.354;2023-09-19T14:31:45;97471.25;;;20.49;63.16
40285;BME280;25997;50.214;19.354;2023-09-19T14:34:48;97486.16;;;20.18;63.83
40285;BME280;25997;50.214;19.354;2023-09-19T14:37:50;97482.06;;;20.00;64.17
40285;BME280;25997;50.214;19.354;2023-09-19T14:41:00;97482.06;;;20.02;64.10
40285;BME280;25997;50.214;19.354;2023-09-19T14:44:03;97485.72;;;19.96;64.55
40285;BME280;25997;50.214;19.354;2023-09-19T14:47:06;97488.50;;;19.89;64.77
40285;BME280;25997;50.214;19.354;2023-09-19T14:50:09;97487.72;;;19.85;64.80
40285;BME280;25997;50.214;19.354;2023-09-19T14:53:13;97486.19;;;19.72;65.19
40285;BME280;25997;50.214;19.354;2023-09-19T14:56:17;97484.22;;;19.34;65.61
40285;BME280;25997;50.214;19.354;2023-09-19T14:59:20;97484.44;;;19.21;65.74
40285;BME280;25997;50.214;19.354;2023-09-19T15:02:23;97481.81;;;19.18;65.73
40285;BME280;25997;50.214;19.354;2023-09-19T15:05:27;97482.00;;;19.09;65.58
40285;BME280;25997;50.214;19.354;2023-09-19T15:08:30;97493.50;;;19.09;65.77
40285;BME280;25997;50.214;19.354;2023-09-19T15:11:34;97490.91;;;19.05;66.21
40285;BME280;25997;50.214;19.354;2023-09-19T15:14:36;97493.03;;;19.40;66.13
40285;BME280;25997;50.214;19.354;2023-09-19T15:17:39;97495.91;;;19.75;64.78
40285;BME280;25997;50.214;19.354;2023-09-19T15:20:43;97492.78;;;20.40;64.15
40285;BME280;25997;50.214;19.354;2023-09-19T15:23:46;97498.28;;;20.34;62.68
40285;BME280;25997;50.214;19.354;2023-09-19T15:26:50;97500.16;;;19.85;63.52
40285;BME280;25997;50.214;19.354;2023-09-19T15:29:52;97491.19;;;19.43;64.25
40285;BME280;25997;50.214;19.354;2023-09-19T15:32:54;97504.00;;;19.20;64.71
40285;BME280;25997;50.214;19.354;2023-09-19T15:36:03;97497.25;;;18.99;65.66
40285;BME280;25997;50.214;19.354;2023-09-19T15:39:07;97497.25;;;18.99;65.79
40285;BME280;25997;50.214;19.354;2023-09-19T15:42:13;97504.75;;;18.73;66.41
40285;BME280;25997;50.214;19.354;2023-09-19T15:45:17;97500.34;;;18.69;66.45
40285;BME280;25997;50.214;19.354;2023-09-19T15:48:19;97501.34;;;18.62;66.63
40285;BME280;25997;50.214;19.354;2023-09-19T15:51:22;97489.78;;;18.66;66.62
40285;BME280;25997;50.214;19.354;2023-09-19T15:54:25;97497.91;;;18.55;66.80
40285;BME280;25997;50.214;19.354;2023-09-19T15:57:30;97489.91;;;18.54;66.74
40285;BME280;25997;50.214;19.354;2023-09-19T16:00:32;97482.00;;;18.49;66.48
40285;BME280;25997;50.214;19.354;2023-09-19T16:03:38;97490.03;;;18.45;66.50
40285;BME280;25997;50.214;19.354;2023-09-19T16:06:40;97490.06;;;18.43;66.84
40285;BME280;25997;50.214;19.354;2023-09-19T16:09:43;97499.16;;;18.29;67.06
40285;BME280;25997;50.214;19.354;2023-09-19T16:12:47;97503.78;;;18.13;67.63
40285;BME280;25997;50.214;19.354;2023-09-19T16:15:49;97496.34;;;18.39;67.32